Alapaha, GA

4:32 AM EDT on October 26, 2014 (GMT -0400)
Forest Lakes | Change Station
CLOSE
Current Station
Personal Weather Station
Location: Tifton, GA
Elevation: 329 ft
Nearby Weather Stations

Elev 329 ft 31.50 °N, 83.44 °W | Updated 5 seconds ago

Clear
Clear
54.3 °F
Feels Like 54.3 °F
N
0.0
Wind Variable Wind from WNW
Gusts 0.0 mph

Today
High -- | Low -- °F
--% Chance of Precip.
Yesterday
High -- | Low -- °F
Precip. -- in
7:43 AM 6:49 PM
Waxing Crescent, 6% visible
Pressure 29.98 in
Visibility 10.0 miles
Clouds Clear
Dew Point 51 °F
Humidity 88%
Rainfall 0.00 in
Snow Depth Not available.
UV 0 out of 12
Pollen 2.00 out of 12
Air Quality Not available.
Flu Activity Sporadic
METAR KTMA 260810Z AUTO 00000KT 10SM CLR 13/08 A2998 RMK AO2 T01270084

More Conditions Fewer Conditions

Pressure 29.98 in
Visibility 10.0 miles
Clouds Clear
Dew Point 51 °F
Humidity 88%
Rainfall 0.00 in
Snow Depth Not available.
UV 0 out of 12
Pollen 2.00 out of 12
Air Quality Not available.
Flu Activity Sporadic
METAR KTMA 260810Z AUTO 00000KT 10SM CLR 13/08 A2998 RMK AO2 T01270084

More Conditions Fewer Conditions

10-Day Weather Forecast

Almanac

Astronomy

Oct. 26, 2014 Rise Set
Actual Time 7:43 AM EDT 6:49 PM EDT
Civil Twilight 7:18 AM EDT 7:14 PM EDT
Nautical Twilight 6:50 AM EDT 7:42 PM EDT
Astronomical Twilight 6:22 AM EDT 8:10 PM EDT
Moon 10:14 AM EDT 9:06 PM EDT
Length of Visible Light 11h 55m
Length of Day
11h 05m
Tomorrow will be 1m 44s shorter.
Waxing Crescent, 6% of the Moon is Illuminated
Today
Waxing Crescent
Oct 30
First Quarter
Nov 6
Full
Nov 14
Last Quarter
Nov 22
New

Today's Extremes

State Highs State Lows

Community

WunderPhotos

Upload Photos

1,765,127 photos uploaded!

Nearby

Snow Depth

Station Depth Elevation
No new snow has been reported.

Earthquake Activity

City Distance Mag. Time & Date
No recent earthquake activity has been reported nearby.
Minimum magnitude displayed is 2.5.

Coastal Water Temperatures

Place Temperature
No Stations Reporting

Nearby Weather Stations